Pampa, TX (79065)

9:50 AM CDT on August 27, 2016 (GMT -0500)
Pampa, TX City Hall | | Change Station

Elev 3255 ft 35.54 °N, 100.96 °W | Updated 4 minutes ago

Clear
Clear
72.7 °F
Feels Like 74 °F
N
11.0
Wind Variable Wind from South
Gusts 11.0 mph

Today
High -- | Low -- °F
--% Chance of Precip.
Yesterday
High -- | Low -- °F
Precip. -- in
Pressure 30.12 in
Visibility 10.0 miles
Clouds Clear
Heat Index 74 °F
Dew Point 64 °F
Humidity 75%
Rainfall 0.11 in
Snow Depth Not available.
7:12 AM 8:17 PM
Waning Crescent, 24% visible
METAR KPPA 271435Z AUTO 21009KT 10SM CLR 24/17 A3012 RMK AO2 T02350172
Pressure 30.12 in
Visibility 10.0 miles
Clouds Clear
Heat Index 74 °F
Dew Point 64 °F
Humidity 75%
Rainfall 0.11 in
Snow Depth Not available.
7:12 AM 8:17 PM
Waning Crescent, 24% visible
METAR KPPA 271435Z AUTO 21009KT 10SM CLR 24/17 A3012 RMK AO2 T02350172

10-Day Weather Forecast

Almanac

Astronomy

Aug. 27, 2016 Rise Set
Actual Time
Civil Twilight
Nautical Twilight
Astronomical Twilight
Moon
Length of Visible Light
Length of Day
Tomorrow will be .
, % of the Moon is Illuminated

Today's Extremes

State Highs State Lows

Community

WunderPhotos

Upload Photos

1,935,344 photos uploaded!

WunderBlog® & News

Nearby

Air Quality

  Air Quality AQ Index Pollutant
Not available.

Snow Depth

Station Depth Elevation

Earthquake Activity

City Distance Mag. Time & Date
Minimum magnitude displayed is 2.5.

Coastal Water Temperatures

Place Temperature

Stations

Nearby Weather Stations

Station Location Temp. Windchill Dew Point Humidity Wind Precip. Elev Updated Type
                   

Watches & Warnings

There are currently no watches in effect.